Aeroporto :
LOGIN :

Iscrizione | Disclaimer

   EN    FR    IT 

 










Sommario :    VFR   VFR Marginale   IFR   IFR Intensivo   IFR Molto Intensivo
Visibilità : 
Base nubi : 
>= 8 km
>= 3000ft
5 / 8 km
1000 / 3000 ft
1500m / 5 km
500 / 1000 ft
800 / 1500m
200 / 500 ft
< 800m
< 200 ft
Simboli :   Temporali  Nebbia  Neve Forte  Precipitazioni Forti  Vento > 20 kt
SIGMETs :   Varie  Temporali  Ghiacco  Turbolenza  Onda orograficha  Ceneri Vulcaniche







- Altitudine del aeroporto : 274 ft
- Codice IATA : PUY


LDPL - Pula

ULTIMO METAR :
  • 260800Z 15009G19KT 090V200 CAVOK 18/13 Q1016 NOSIG

METARs OBSOLETI :
  • 260730Z 14007G17KT 100V240 CAVOK 18/13 Q1016 NOSIG
  • 260700Z 14010KT 090V200 CAVOK 17/13 Q1016 NOSIG
  • 260630Z 14009KT 070V190 CAVOK 17/13 Q1016 NOSIG
  • 260600Z 13007KT 100V170 CAVOK 17/13 Q1016 NOSIG
  • 260530Z 11008KT 090V150 CAVOK 16/12 Q1016 NOSIG

TAF AMD TAF LDPL
Valido dal 26 a 07 ore il 27 a 06 ore UTC


260701Z 2607/2706 13012KT CAVOK TX18/2612Z TN12/2704Z
BECMG 2616/2618 27008KT
TEMPO 2616/2622 SHRA SCT020TCU BKN030
Nessun NOTAM noto per questo aeroporto.
2 SIGMETs conosciuti per la FIR Zagreb (LDZO) :
 
Forte onda orograficha
LDZO SIGMET 2 VALID 260753/260900 LDZA
LDZO ZAGREB FIR SEV MTW FCST WI N4632 E01627 - N4559 E01725 - N4537 E01634 - N4607 E01537 - N4632 E01627 FL340/390 STNR NC=
Forte onda orograficha
LDZO SIGMET 1 VALID 260641/260900 LDZA
LDZO ZAGREB FIR SEV MTW FCST WI N4550 E01533 - N4511 E01630 - N4414 E01615 - N4536 E01430 - N4550 E01533 FL340/390 STNR NC=



MetMap, La meteo Aeronautica in un colpo d'occhio ! - Copyright ORBIFLY Dicembre 2007 - Disclaimer

ORBIFLY MET'MAP TEAM :

Programmazione e sviluppo : Alexandra Zaïnal
Concezione e sviluppo : Baudouin d'Aumeries
Co-Programmazione e sviluppo : Marc-Olivier Méhu
Supporto tecnico e logistico : Manuel Goepfert
Aiuto per la traduzione : Arnaldo La Scala

Contatto : metmap@orbifly.com




FONTI E CREDITI :

   NOAA